Time;durP1;ratioP1;P1;durP2;ratioP2;P2;SDS_P1;SDS_P2;PMS_P1;PMS_P2;Temp;Humidity;BMP_temperature;BMP_pressure;BME280_temperature;BME280_humidity;BME280_pressure;Samples;Min_cycle;Max_cycle;Signal;HPM_P1;HPM_P2
2023/08/06 00:01:31;;;;;;;4.32;3.92;;;;;;;;;;5118280;28;20282;-71
2023/08/06 00:03:59;;;;;;;4.03;3.72;;;;;;;;;;5118086;28;20203;-71
2023/08/06 00:06:27;;;;;;;4.40;4.10;;;;;;;;;;5118274;28;20202;-71
2023/08/06 00:08:56;;;;;;;4.40;4.10;;;;;;;;;;5117959;28;20199;-71
2023/08/06 00:11:23;;;;;;;4.38;3.97;;;;;;;;;;5117519;28;20454;-71
2023/08/06 00:13:51;;;;;;;4.90;4.32;;;;;;;;;;5118058;28;20520;-71
2023/08/06 00:16:20;;;;;;;4.70;4.30;;;;;;;;;;5118135;28;20601;-71
2023/08/06 00:18:47;;;;;;;4.68;4.00;;;;;;;;;;5118188;28;20255;-71
2023/08/06 00:21:15;;;;;;;4.30;4.00;;;;;;;;;;5117925;28;20203;-71
2023/08/06 00:23:42;;;;;;;4.30;3.90;;;;;;;;;;5117846;28;20199;-71
2023/08/06 00:26:10;;;;;;;4.22;3.83;;;;;;;;;;5118140;28;20298;-71
2023/08/06 00:28:37;;;;;;;4.25;3.90;;;;;;;;;;5117823;28;20554;-71
2023/08/06 00:31:05;;;;;;;4.75;4.32;;;;;;;;;;5117557;28;20585;-71
2023/08/06 00:33:34;;;;;;;5.50;4.00;;;;;;;;;;5116701;28;20203;-71
2023/08/06 00:36:02;;;;;;;4.55;3.95;;;;;;;;;;5117767;28;20199;-71
2023/08/06 00:38:30;;;;;;;4.25;3.90;;;;;;;;;;5117269;28;20633;-71
2023/08/06 00:40:58;;;;;;;3.97;3.67;;;;;;;;;;5117347;28;20211;-71
2023/08/06 00:43:26;;;;;;;4.00;3.70;;;;;;;;;;5117341;28;20213;-71
2023/08/06 00:45:53;;;;;;;4.07;3.75;;;;;;;;;;5117426;28;20199;-71
2023/08/06 00:48:21;;;;;;;4.30;3.75;;;;;;;;;;5117520;28;20289;-71
2023/08/06 00:50:50;;;;;;;4.47;4.07;;;;;;;;;;5117597;28;20203;-71
2023/08/06 00:53:18;;;;;;;4.07;3.78;;;;;;;;;;5117641;28;20214;-71
2023/08/06 00:55:46;;;;;;;4.10;3.67;;;;;;;;;;5117281;28;20268;-71
2023/08/06 00:58:14;;;;;;;4.00;3.70;;;;;;;;;;5117111;28;20242;-71
2023/08/06 01:00:42;;;;;;;4.22;3.42;;;;;;;;;;5117380;28;20199;-71
2023/08/06 01:03:09;;;;;;;3.83;3.53;;;;;;;;;;5117508;28;20205;-71
2023/08/06 01:05:37;;;;;;;3.70;3.50;;;;;;;;;;5117272;28;20594;-71
2023/08/06 01:08:13;;;;;;;3.70;3.40;;;;;;;;;;5117025;28;20221;-71
2023/08/06 01:10:45;;;;;;;3.83;3.53;;;;;;;;;;5117584;28;20214;-71
2023/08/06 01:13:18;;;;;;;3.88;3.63;;;;;;;;;;5117597;28;20571;-70
2023/08/06 01:15:48;;;;;;;4.00;3.65;;;;;;;;;;5117223;28;20211;-70
2023/08/06 01:18:16;;;;;;;4.45;3.63;;;;;;;;;;5117205;28;20230;-70
2023/08/06 01:20:45;;;;;;;3.92;3.63;;;;;;;;;;5117365;28;20203;-70
2023/08/06 01:23:12;;;;;;;4.20;3.80;;;;;;;;;;5117398;28;20230;-70
2023/08/06 01:25:43;;;;;;;3.88;3.53;;;;;;;;;;5117398;28;20203;-71
2023/08/06 01:28:18;;;;;;;3.92;3.63;;;;;;;;;;5117631;28;20562;-71
2023/08/06 01:30:45;;;;;;;3.83;3.30;;;;;;;;;;5117481;28;20589;-71
2023/08/06 01:33:16;;;;;;;3.63;3.33;;;;;;;;;;5117142;28;20214;-71
2023/08/06 01:35:46;;;;;;;3.83;3.53;;;;;;;;;;5117075;28;20221;-71
2023/08/06 01:38:14;;;;;;;3.45;3.20;;;;;;;;;;5116793;28;20223;-71
2023/08/06 01:40:41;;;;;;;3.88;3.58;;;;;;;;;;5116896;28;20203;-71
2023/08/06 01:43:09;;;;;;;3.58;3.28;;;;;;;;;;5117733;28;20586;-71
2023/08/06 01:45:37;;;;;;;3.72;3.42;;;;;;;;;;5121259;28;20211;-71
2023/08/06 01:48:04;;;;;;;3.85;3.50;;;;;;;;;;5120763;28;20469;-71
2023/08/06 01:50:32;;;;;;;3.50;3.20;;;;;;;;;;5120686;28;20211;-71
2023/08/06 01:53:01;;;;;;;3.50;3.30;;;;;;;;;;5120766;28;20238;-71
2023/08/06 01:55:31;;;;;;;3.17;2.95;;;;;;;;;;5121044;28;20549;-71
2023/08/06 01:57:58;;;;;;;3.42;3.20;;;;;;;;;;5120690;28;20235;-71
2023/08/06 02:00:27;;;;;;;3.35;3.15;;;;;;;;;;5120730;28;20221;-71
2023/08/06 02:02:55;;;;;;;3.25;3.00;;;;;;;;;;5120812;28;20562;-71
2023/08/06 02:05:22;;;;;;;3.42;2.97;;;;;;;;;;5120444;28;20210;-71
2023/08/06 02:07:50;;;;;;;3.38;2.90;;;;;;;;;;5120260;28;20206;-71
2023/08/06 02:10:19;;;;;;;4.05;3.08;;;;;;;;;;5120606;28;20218;-71
2023/08/06 02:12:47;;;;;;;3.30;2.97;;;;;;;;;;5120641;28;20213;-71
2023/08/06 02:15:15;;;;;;;3.10;2.90;;;;;;;;;;5120477;28;20210;-71
2023/08/06 02:17:42;;;;;;;4.30;3.17;;;;;;;;;;5120246;28;20257;-71
2023/08/06 02:20:10;;;;;;;3.25;2.90;;;;;;;;;;5120201;28;20199;-71
2023/08/06 02:22:38;;;;;;;3.47;3.17;;;;;;;;;;5120138;28;20210;-71
2023/08/06 02:25:05;;;;;;;4.45;3.00;;;;;;;;;;5120150;28;20203;-71
2023/08/06 02:27:34;;;;;;;3.20;3.00;;;;;;;;;;5119818;28;20566;-71
2023/08/06 02:30:03;;;;;;;3.13;2.83;;;;;;;;;;5120542;28;20285;-71
2023/08/06 02:32:32;;;;;;;3.20;3.00;;;;;;;;;;5120115;28;20214;-71
2023/08/06 02:34:59;;;;;;;3.00;2.80;;;;;;;;;;5120346;28;20289;-71
2023/08/06 02:37:27;;;;;;;2.97;2.78;;;;;;;;;;5120097;28;20230;-71
2023/08/06 02:39:55;;;;;;;2.97;2.78;;;;;;;;;;5119829;28;20217;-71
2023/08/06 02:42:23;;;;;;;2.78;2.58;;;;;;;;;;5119947;28;20202;-71
2023/08/06 02:44:52;;;;;;;2.70;2.60;;;;;;;;;;5120233;28;20199;-71
2023/08/06 02:47:20;;;;;;;2.97;2.53;;;;;;;;;;5120038;28;20218;-71
2023/08/06 02:49:47;;;;;;;4.38;2.60;;;;;;;;;;5119730;28;20213;-71
2023/08/06 02:52:15;;;;;;;2.58;2.38;;;;;;;;;;5119945;28;20234;-71
2023/08/06 02:54:42;;;;;;;3.15;2.50;;;;;;;;;;5119280;28;20633;-71
2023/08/06 02:57:10;;;;;;;2.92;2.38;;;;;;;;;;5119279;28;20571;-71
2023/08/06 02:59:38;;;;;;;2.40;2.20;;;;;;;;;;5119250;28;20231;-71
2023/08/06 03:02:07;;;;;;;2.70;2.50;;;;;;;;;;5119596;28;20209;-71
2023/08/06 03:04:35;;;;;;;2.53;2.35;;;;;;;;;;5119871;28;20460;-71
2023/08/06 03:07:02;;;;;;;2.25;2.10;;;;;;;;;;5119656;28;20202;-71
2023/08/06 03:09:30;;;;;;;2.60;2.40;;;;;;;;;;5119303;28;20518;-71
2023/08/06 03:11:57;;;;;;;2.60;2.17;;;;;;;;;;5119327;28;20217;-71
2023/08/06 03:14:25;;;;;;;2.45;2.25;;;;;;;;;;5119010;28;20203;-71
2023/08/06 03:16:53;;;;;;;2.38;2.10;;;;;;;;;;5119443;28;20202;-71
2023/08/06 03:19:22;;;;;;;1.95;1.85;;;;;;;;;;5119267;28;20231;-71
2023/08/06 03:21:49;;;;;;;1.98;1.88;;;;;;;;;;5119004;28;20217;-71
2023/08/06 03:24:17;;;;;;;2.08;1.92;;;;;;;;;;5119214;28;20286;-71
2023/08/06 03:26:44;;;;;;;2.55;1.80;;;;;;;;;;5119212;28;20203;-71
2023/08/06 03:29:12;;;;;;;1.90;1.70;;;;;;;;;;5119391;28;20238;-71
2023/08/06 03:31:40;;;;;;;3.15;1.90;;;;;;;;;;5118860;28;20213;-71
2023/08/06 03:34:08;;;;;;;1.77;1.65;;;;;;;;;;5118794;28;20214;-71
2023/08/06 03:36:37;;;;;;;1.77;1.67;;;;;;;;;;5118352;28;20211;-71
2023/08/06 03:39:04;;;;;;;1.98;1.88;;;;;;;;;;5118885;28;20233;-71
2023/08/06 03:41:32;;;;;;;1.55;1.45;;;;;;;;;;5118640;28;20229;-71
2023/08/06 03:44:00;;;;;;;2.55;1.50;;;;;;;;;;5118799;28;20217;-70
2023/08/06 03:46:28;;;;;;;1.65;1.55;;;;;;;;;;5118928;28;20206;-70
2023/08/06 03:48:56;;;;;;;1.67;1.58;;;;;;;;;;5118875;28;20221;-71
2023/08/06 03:51:24;;;;;;;1.60;1.50;;;;;;;;;;5118888;28;20239;-71
2023/08/06 03:53:53;;;;;;;1.83;1.45;;;;;;;;;;5118718;28;20225;-71
2023/08/06 03:56:21;;;;;;;3.13;1.45;;;;;;;;;;5118419;28;20609;-71
2023/08/06 03:58:49;;;;;;;1.92;1.50;;;;;;;;;;5118100;28;20305;-71
2023/08/06 04:01:17;;;;;;;2.40;1.40;;;;;;;;;;5118547;28;20302;-71
2023/08/06 04:03:44;;;;;;;2.08;1.30;;;;;;;;;;5118313;28;20202;-71
2023/08/06 04:06:11;;;;;;;1.50;1.40;;;;;;;;;;5118146;28;20267;-71
2023/08/06 04:08:39;;;;;;;1.85;1.38;;;;;;;;;;5117163;28;20291;-71
2023/08/06 04:11:08;;;;;;;1.60;1.30;;;;;;;;;;5118077;28;20209;-71
2023/08/06 04:13:35;;;;;;;2.15;1.23;;;;;;;;;;5118023;28;20297;-71
2023/08/06 04:16:03;;;;;;;2.03;1.30;;;;;;;;;;5117949;28;20309;-71
2023/08/06 04:18:30;;;;;;;1.42;1.30;;;;;;;;;;5117885;28;20516;-71
2023/08/06 04:20:58;;;;;;;2.03;1.30;;;;;;;;;;5118291;28;20285;-71
2023/08/06 04:23:25;;;;;;;1.60;1.20;;;;;;;;;;5118110;28;20195;-71
2023/08/06 04:25:53;;;;;;;1.48;1.25;;;;;;;;;;5118295;28;20294;-71
2023/08/06 04:28:21;;;;;;;1.50;1.40;;;;;;;;;;5117814;28;20285;-71
2023/08/06 04:30:49;;;;;;;1.48;1.38;;;;;;;;;;5118562;28;20309;-71
2023/08/06 04:33:16;;;;;;;1.45;1.35;;;;;;;;;;5117687;28;20213;-71
2023/08/06 04:35:43;;;;;;;2.75;1.30;;;;;;;;;;5117976;28;20796;-71
2023/08/06 04:38:11;;;;;;;1.75;1.30;;;;;;;;;;5117727;28;20211;-71
2023/08/06 04:40:38;;;;;;;1.40;1.30;;;;;;;;;;5118075;28;20306;-71
2023/08/06 04:43:06;;;;;;;1.20;1.10;;;;;;;;;;5117785;28;20604;-71
2023/08/06 04:45:35;;;;;;;2.65;1.40;;;;;;;;;;5117882;28;20210;-71
2023/08/06 04:48:02;;;;;;;1.20;1.10;;;;;;;;;;5116984;28;20199;-71
2023/08/06 04:50:29;;;;;;;1.00;1.00;;;;;;;;;;5115465;28;20210;-71
2023/08/06 04:52:57;;;;;;;1.75;1.40;;;;;;;;;;5115205;28;20401;-71
2023/08/06 04:55:24;;;;;;;1.27;1.17;;;;;;;;;;5115660;28;20198;-71
2023/08/06 04:57:51;;;;;;;2.53;1.40;;;;;;;;;;5115289;28;20309;-71
2023/08/06 05:00:19;;;;;;;1.25;1.10;;;;;;;;;;5117963;28;20612;-71
2023/08/06 05:02:48;;;;;;;1.30;1.20;;;;;;;;;;5117873;28;20476;-71
2023/08/06 05:05:15;;;;;;;1.20;1.20;;;;;;;;;;5117262;28;20297;-71
2023/08/06 05:07:42;;;;;;;1.67;1.55;;;;;;;;;;5117922;28;20286;-70
2023/08/06 05:10:10;;;;;;;2.28;1.35;;;;;;;;;;5117688;28;20294;-70
2023/08/06 05:12:38;;;;;;;1.17;1.17;;;;;;;;;;5117665;28;20305;-70
2023/08/06 05:15:06;;;;;;;2.33;1.30;;;;;;;;;;5116935;28;20585;-71
2023/08/06 05:17:33;;;;;;;1.83;1.40;;;;;;;;;;5117349;28;20479;-70
2023/08/06 05:20:03;;;;;;;1.70;1.27;;;;;;;;;;5120748;28;20227;-70
2023/08/06 05:22:30;;;;;;;1.77;1.40;;;;;;;;;;5121708;28;20285;-70
2023/08/06 05:24:57;;;;;;;1.38;1.30;;;;;;;;;;5121660;28;20245;-70
2023/08/06 05:27:25;;;;;;;1.50;1.40;;;;;;;;;;5121548;28;20210;-70
2023/08/06 05:29:56;;;;;;;1.75;1.48;;;;;;;;;;5121577;28;20301;-70
2023/08/06 05:32:24;;;;;;;1.65;1.55;;;;;;;;;;5121359;28;20203;-70
2023/08/06 05:34:51;;;;;;;1.60;1.50;;;;;;;;;;5121330;28;20504;-71
2023/08/06 05:37:20;;;;;;;1.60;1.50;;;;;;;;;;5121459;28;20239;-70
2023/08/06 05:39:48;;;;;;;1.63;1.52;;;;;;;;;;5121358;28;20608;-70
2023/08/06 05:42:15;;;;;;;1.88;1.40;;;;;;;;;;5121431;28;20290;-70
2023/08/06 05:44:42;;;;;;;1.65;1.55;;;;;;;;;;5120671;28;20505;-70
2023/08/06 05:47:10;;;;;;;2.35;1.70;;;;;;;;;;5121290;28;20508;-70
2023/08/06 05:49:37;;;;;;;2.63;1.50;;;;;;;;;;5121298;28;20203;-70
2023/08/06 05:52:08;;;;;;;2.67;1.63;;;;;;;;;;5120737;28;20321;-70
2023/08/06 05:54:37;;;;;;;1.90;1.80;;;;;;;;;;5120677;28;20662;-71
2023/08/06 05:57:04;;;;;;;2.35;1.52;;;;;;;;;;5120976;28;20294;-71
2023/08/06 05:59:32;;;;;;;1.70;1.60;;;;;;;;;;5120317;28;20226;-71
2023/08/06 06:01:59;;;;;;;2.08;1.88;;;;;;;;;;5119955;28;20230;-71
2023/08/06 06:04:27;;;;;;;1.65;1.55;;;;;;;;;;5120761;28;20592;-70
2023/08/06 06:06:54;;;;;;;1.80;1.70;;;;;;;;;;5120828;28;20213;-70
2023/08/06 06:09:21;;;;;;;1.73;1.63;;;;;;;;;;5121024;28;20207;-70
2023/08/06 06:11:50;;;;;;;2.20;1.50;;;;;;;;;;5120496;28;20205;-70
2023/08/06 06:14:18;;;;;;;1.85;1.73;;;;;;;;;;5120143;28;20210;-70
2023/08/06 06:16:45;;;;;;;1.83;1.73;;;;;;;;;;5120347;28;20412;-70
2023/08/06 06:19:13;;;;;;;2.03;1.92;;;;;;;;;;5120094;28;20313;-70
2023/08/06 06:21:41;;;;;;;1.83;1.73;;;;;;;;;;5120281;28;20780;-71
2023/08/06 06:24:08;;;;;;;2.72;1.95;;;;;;;;;;5120699;28;20305;-71
2023/08/06 06:26:35;;;;;;;2.03;1.80;;;;;;;;;;5119801;28;20651;-71
2023/08/06 06:29:04;;;;;;;1.80;1.70;;;;;;;;;;5120456;28;20290;-71
2023/08/06 06:31:32;;;;;;;2.20;2.00;;;;;;;;;;5118908;28;20289;-71
2023/08/06 06:33:59;;;;;;;2.20;2.10;;;;;;;;;;5119879;28;20210;-71
2023/08/06 06:36:27;;;;;;;1.90;1.80;;;;;;;;;;5119947;28;20301;-71
2023/08/06 06:38:54;;;;;;;2.10;1.90;;;;;;;;;;5119439;28;20225;-70
2023/08/06 06:41:21;;;;;;;2.28;2.13;;;;;;;;;;5119727;28;20620;-71
2023/08/06 06:43:49;;;;;;;2.15;1.95;;;;;;;;;;5119888;28;20209;-71
2023/08/06 06:46:18;;;;;;;2.03;1.92;;;;;;;;;;5119481;28;20207;-71
2023/08/06 06:48:45;;;;;;;2.00;1.90;;;;;;;;;;5119990;28;20294;-71
2023/08/06 06:51:12;;;;;;;2.03;1.80;;;;;;;;;;5119824;28;20277;-71
2023/08/06 06:53:40;;;;;;;1.92;1.83;;;;;;;;;;5119479;28;20213;-71
2023/08/06 06:56:08;;;;;;;2.38;1.88;;;;;;;;;;5119540;28;20264;-71
2023/08/06 06:58:35;;;;;;;2.28;1.98;;;;;;;;;;5119117;28;20203;-70
2023/08/06 07:01:03;;;;;;;2.30;1.92;;;;;;;;;;5119355;28;20203;-70
2023/08/06 07:03:31;;;;;;;1.98;1.88;;;;;;;;;;5119149;28;20235;-71
2023/08/06 07:05:59;;;;;;;2.28;2.05;;;;;;;;;;5119050;28;20294;-71
2023/08/06 07:08:27;;;;;;;2.35;1.83;;;;;;;;;;5119392;28;20242;-71
2023/08/06 07:11:02;;;;;;;2.10;2.00;;;;;;;;;;5119367;28;20203;-71
2023/08/06 07:13:29;;;;;;;2.20;2.10;;;;;;;;;;5119574;28;20214;-71
2023/08/06 07:15:57;;;;;;;2.17;2.08;;;;;;;;;;5119386;28;20211;-71
2023/08/06 07:18:24;;;;;;;2.35;1.90;;;;;;;;;;5118952;28;20285;-71
2023/08/06 07:20:54;;;;;;;2.30;2.10;;;;;;;;;;5119035;28;20227;-71
2023/08/06 07:23:22;;;;;;;1.90;1.80;;;;;;;;;;5119126;28;20203;-71
2023/08/06 07:25:50;;;;;;;1.95;1.70;;;;;;;;;;5118669;28;20328;-71
2023/08/06 07:28:17;;;;;;;1.90;1.80;;;;;;;;;;5118782;28;20210;-71
2023/08/06 07:30:45;;;;;;;2.10;1.90;;;;;;;;;;5119283;28;20199;-71
2023/08/06 07:33:13;;;;;;;2.00;1.90;;;;;;;;;;5118916;28;20562;-71
2023/08/06 07:35:40;;;;;;;2.00;1.80;;;;;;;;;;5118190;28;20234;-71
2023/08/06 07:38:09;;;;;;;2.05;1.90;;;;;;;;;;5118440;28;20199;-71
2023/08/06 07:40:37;;;;;;;1.92;1.80;;;;;;;;;;5117900;28;20512;-71
2023/08/06 07:43:05;;;;;;;1.80;1.70;;;;;;;;;;5118424;28;20203;-70
2023/08/06 07:45:34;;;;;;;1.73;1.63;;;;;;;;;;5118309;28;20249;-70
2023/08/06 07:48:02;;;;;;;2.03;1.70;;;;;;;;;;5118236;28;20203;-70
2023/08/06 07:50:29;;;;;;;1.75;1.65;;;;;;;;;;5117837;28;20199;-70
2023/08/06 07:52:56;;;;;;;1.85;1.60;;;;;;;;;;5113354;28;20306;-71
2023/08/06 07:55:25;;;;;;;2.03;1.67;;;;;;;;;;5097917;28;20199;-71
2023/08/06 07:57:53;;;;;;;1.80;1.70;;;;;;;;;;5098741;28;20294;-71
2023/08/06 08:00:20;;;;;;;2.03;1.83;;;;;;;;;;5117244;28;20326;-71
2023/08/06 08:02:47;;;;;;;1.75;1.65;;;;;;;;;;5117946;28;20539;-71
2023/08/06 08:05:15;;;;;;;2.00;1.90;;;;;;;;;;5118075;28;20217;-73
2023/08/06 08:07:44;;;;;;;1.98;1.85;;;;;;;;;;5118039;28;20203;-71
2023/08/06 08:10:11;;;;;;;2.05;1.70;;;;;;;;;;5118227;28;20202;-71
2023/08/06 08:12:40;;;;;;;2.22;2.00;;;;;;;;;;5117528;28;20290;-71
2023/08/06 08:15:08;;;;;;;2.30;1.90;;;;;;;;;;5118044;28;20573;-71
2023/08/06 08:17:35;;;;;;;2.05;1.95;;;;;;;;;;5117269;28;20210;-70
2023/08/06 08:20:03;;;;;;;2.05;1.95;;;;;;;;;;5117140;28;20233;-70
2023/08/06 08:22:30;;;;;;;1.92;1.83;;;;;;;;;;5117340;28;20325;-70
2023/08/06 08:24:58;;;;;;;1.90;1.80;;;;;;;;;;5117773;28;20682;-70
2023/08/06 08:27:26;;;;;;;2.08;1.98;;;;;;;;;;5118066;28;20286;-70
2023/08/06 08:29:54;;;;;;;2.25;2.05;;;;;;;;;;5117017;28;20673;-70
2023/08/06 08:32:22;;;;;;;2.22;2.10;;;;;;;;;;5118003;28;20604;-71
2023/08/06 08:34:50;;;;;;;2.30;2.10;;;;;;;;;;5117643;28;20226;-71
2023/08/06 08:37:17;;;;;;;2.80;2.22;;;;;;;;;;5117635;28;20365;-71
2023/08/06 08:39:44;;;;;;;2.40;2.20;;;;;;;;;;5117329;28;20233;-70
2023/08/06 08:42:12;;;;;;;2.53;2.33;;;;;;;;;;5116595;28;20301;-70
2023/08/06 08:44:40;;;;;;;2.47;2.28;;;;;;;;;;5117001;28;20263;-70
2023/08/06 08:47:09;;;;;;;2.50;2.30;;;;;;;;;;5117719;28;20617;-70
2023/08/06 08:49:37;;;;;;;2.00;1.90;;;;;;;;;;5117270;28;20199;-70
2023/08/06 08:52:06;;;;;;;2.10;2.00;;;;;;;;;;5116785;28;20514;-70
2023/08/06 08:54:34;;;;;;;2.53;2.17;;;;;;;;;;5116520;28;20213;-70
2023/08/06 08:57:02;;;;;;;2.63;2.22;;;;;;;;;;5116733;28;20268;-71
2023/08/06 08:59:29;;;;;;;2.60;2.40;;;;;;;;;;5116398;28;20309;-71
2023/08/06 09:01:57;;;;;;;2.13;2.03;;;;;;;;;;5117009;28;20209;-71
2023/08/06 09:04:27;;;;;;;2.80;2.17;;;;;;;;;;5116264;28;20567;-71
2023/08/06 09:06:56;;;;;;;2.65;2.38;;;;;;;;;;5116194;28;20720;-71
2023/08/06 09:09:27;;;;;;;2.40;2.20;;;;;;;;;;5117269;28;20203;-71
2023/08/06 09:11:56;;;;;;;2.20;2.00;;;;;;;;;;5116462;28;20217;-71
2023/08/06 09:14:23;;;;;;;2.30;2.10;;;;;;;;;;5116173;28;20261;-71
2023/08/06 09:16:51;;;;;;;2.47;2.10;;;;;;;;;;5104075;28;20207;-71
2023/08/06 09:19:18;;;;;;;2.95;2.60;;;;;;;;;;5096200;28;20297;-71
2023/08/06 09:21:49;;;;;;;2.40;2.20;;;;;;;;;;5096120;28;20294;-71
2023/08/06 09:24:16;;;;;;;2.50;2.30;;;;;;;;;;5096080;28;20203;-71
2023/08/06 09:26:45;;;;;;;2.63;2.10;;;;;;;;;;5096231;28;20261;-71
2023/08/06 09:29:13;;;;;;;2.17;1.95;;;;;;;;;;5096603;28;20204;-71
2023/08/06 09:31:44;;;;;;;2.10;2.00;;;;;;;;;;5096989;28;20200;-71
2023/08/06 09:34:17;;;;;;;2.28;2.08;;;;;;;;;;5095407;28;20241;-71
2023/08/06 09:36:45;;;;;;;2.78;2.10;;;;;;;;;;5095815;28;20268;-71
2023/08/06 09:39:17;;;;;;;2.25;2.10;;;;;;;;;;5095918;28;20203;-70
2023/08/06 09:41:45;;;;;;;2.08;1.90;;;;;;;;;;5096183;28;20231;-70
2023/08/06 09:44:18;;;;;;;3.75;1.92;;;;;;;;;;5096278;28;20298;-70
2023/08/06 09:46:48;;;;;;;2.00;1.80;;;;;;;;;;5096130;28;20215;-70
2023/08/06 09:49:16;;;;;;;2.13;1.92;;;;;;;;;;5096756;28;20470;-70
2023/08/06 09:51:44;;;;;;;2.22;2.03;;;;;;;;;;5095262;28;20598;-70
2023/08/06 09:54:13;;;;;;;2.13;1.92;;;;;;;;;;5096337;28;20258;-70
2023/08/06 09:56:42;;;;;;;2.53;2.03;;;;;;;;;;5096347;28;20208;-70
2023/08/06 09:59:10;;;;;;;2.05;1.95;;;;;;;;;;5107619;28;20210;-70
2023/08/06 10:01:38;;;;;;;2.13;2.03;;;;;;;;;;5115846;28;20272;-70
2023/08/06 10:04:07;;;;;;;2.45;2.25;;;;;;;;;;5116165;28;20309;-70
2023/08/06 10:06:35;;;;;;;2.08;1.88;;;;;;;;;;5119493;28;20213;-70
2023/08/06 10:09:03;;;;;;;2.15;1.95;;;;;;;;;;5120095;28;20560;-70
2023/08/06 10:11:31;;;;;;;1.98;1.80;;;;;;;;;;5119583;28;20470;-70
2023/08/06 10:14:04;;;;;;;1.77;1.60;;;;;;;;;;5120136;28;20198;-70
2023/08/06 10:16:33;;;;;;;2.15;1.90;;;;;;;;;;5119533;28;20302;-70
2023/08/06 10:19:00;;;;;;;2.05;1.85;;;;;;;;;;5119544;28;20630;-70
2023/08/06 10:21:30;;;;;;;2.78;1.85;;;;;;;;;;5119604;28;20219;-70
2023/08/06 10:23:58;;;;;;;2.00;1.60;;;;;;;;;;5118847;28;20199;-70
2023/08/06 10:26:27;;;;;;;2.20;1.60;;;;;;;;;;5119234;28;20237;-70
2023/08/06 10:28:55;;;;;;;1.85;1.70;;;;;;;;;;5119433;28;20665;-71
2023/08/06 10:31:48;;;;;;;1.90;1.80;;;;;;;;;;5118876;28;20203;-71
2023/08/06 10:34:18;;;;;;;1.98;1.70;;;;;;;;;;5119039;28;20207;-71
2023/08/06 10:36:46;;;;;;;2.03;1.92;;;;;;;;;;5119446;28;20203;-70
2023/08/06 10:39:15;;;;;;;2.20;1.92;;;;;;;;;;5119313;28;20203;-70
2023/08/06 10:41:44;;;;;;;2.70;2.03;;;;;;;;;;5119208;28;20609;-71
2023/08/06 10:44:12;;;;;;;2.20;1.67;;;;;;;;;;5119674;28;20207;-71
2023/08/06 10:46:41;;;;;;;2.20;1.67;;;;;;;;;;5119088;28;20217;-71
2023/08/06 10:49:09;;;;;;;2.83;1.88;;;;;;;;;;5118671;28;20597;-71
2023/08/06 10:51:37;;;;;;;2.25;1.58;;;;;;;;;;5117343;28;20239;-71
2023/08/06 10:54:04;;;;;;;2.00;1.80;;;;;;;;;;5118349;28;20205;-71
2023/08/06 10:56:32;;;;;;;1.60;1.50;;;;;;;;;;5118772;28;20199;-71
2023/08/06 10:58:59;;;;;;;2.05;1.55;;;;;;;;;;5118529;28;20207;-71
2023/08/06 11:01:30;;;;;;;2.08;1.75;;;;;;;;;;5119121;28;20317;-71
2023/08/06 11:04:05;;;;;;;1.70;1.60;;;;;;;;;;5118470;28;20285;-70
2023/08/06 11:06:33;;;;;;;2.10;1.67;;;;;;;;;;5118578;28;20203;-70
2023/08/06 11:09:00;;;;;;;2.47;1.50;;;;;;;;;;5118433;28;20214;-70
2023/08/06 11:11:29;;;;;;;1.60;1.38;;;;;;;;;;5118476;28;20285;-71
2023/08/06 11:13:56;;;;;;;1.95;1.23;;;;;;;;;;5117752;28;20736;-71
2023/08/06 11:16:24;;;;;;;1.25;1.10;;;;;;;;;;5117778;28;20203;-71
2023/08/06 11:18:54;;;;;;;1.45;1.35;;;;;;;;;;5118979;28;20459;-71
2023/08/06 11:21:24;;;;;;;1.25;1.15;;;;;;;;;;5118384;28;20227;-71
2023/08/06 11:23:52;;;;;;;1.30;1.20;;;;;;;;;;5118820;28;20295;-71
2023/08/06 11:26:21;;;;;;;1.30;1.20;;;;;;;;;;5118123;28;20367;-71
2023/08/06 11:28:48;;;;;;;1.38;1.27;;;;;;;;;;5118451;28;20578;-71
2023/08/06 11:31:20;;;;;;;2.28;1.60;;;;;;;;;;5118155;28;20289;-71
2023/08/06 11:33:48;;;;;;;1.40;1.30;;;;;;;;;;5118178;28;20574;-71
2023/08/06 11:36:15;;;;;;;1.30;1.20;;;;;;;;;;5117873;28;20215;-71
2023/08/06 11:38:44;;;;;;;2.47;1.52;;;;;;;;;;5117897;28;20209;-71
2023/08/06 11:41:11;;;;;;;1.40;1.30;;;;;;;;;;5117197;28;20226;-71
2023/08/06 11:43:39;;;;;;;1.67;1.45;;;;;;;;;;5117830;28;20203;-71
2023/08/06 11:46:06;;;;;;;1.38;1.27;;;;;;;;;;5117176;28;20209;-71
2023/08/06 11:48:34;;;;;;;1.35;1.13;;;;;;;;;;5118161;28;20487;-71
2023/08/06 11:51:01;;;;;;;2.55;1.45;;;;;;;;;;5117936;28;20434;-71
2023/08/06 11:53:30;;;;;;;1.45;1.35;;;;;;;;;;5117744;28;20297;-71
2023/08/06 11:55:59;;;;;;;1.52;1.42;;;;;;;;;;5117750;28;20672;-71
2023/08/06 11:58:28;;;;;;;1.27;1.17;;;;;;;;;;5117654;28;20243;-71
2023/08/06 12:00:56;;;;;;;1.30;1.20;;;;;;;;;;5117906;28;20222;-71
2023/08/06 12:03:27;;;;;;;1.55;1.17;;;;;;;;;;5117507;28;20203;-71
2023/08/06 12:05:55;;;;;;;1.33;1.23;;;;;;;;;;5117027;28;20210;-73
2023/08/06 12:08:28;;;;;;;1.10;1.00;;;;;;;;;;5117582;28;20579;-73
2023/08/06 12:10:55;;;;;;;1.13;1.05;;;;;;;;;;5117312;28;20310;-73
2023/08/06 12:13:24;;;;;;;1.10;1.00;;;;;;;;;;5117325;28;20229;-71
2023/08/06 12:15:53;;;;;;;1.20;1.10;;;;;;;;;;5117326;28;20214;-71
2023/08/06 12:18:20;;;;;;;0.80;0.80;;;;;;;;;;5116170;28;20641;-71
2023/08/06 12:20:48;;;;;;;1.13;0.90;;;;;;;;;;5116422;28;20624;-71
2023/08/06 12:23:15;;;;;;;1.13;1.02;;;;;;;;;;5116221;28;20328;-71
2023/08/06 12:25:44;;;;;;;1.10;1.00;;;;;;;;;;5115815;28;20195;-71
2023/08/06 12:28:13;;;;;;;0.80;0.80;;;;;;;;;;5115722;28;20210;-71
2023/08/06 12:30:44;;;;;;;0.80;0.80;;;;;;;;;;5117528;28;20203;-71
2023/08/06 12:33:11;;;;;;;0.80;0.70;;;;;;;;;;5116876;28;20203;-71
2023/08/06 12:35:39;;;;;;;0.70;0.70;;;;;;;;;;5116744;28;20230;-71
2023/08/06 12:38:06;;;;;;;1.13;0.60;;;;;;;;;;5116775;28;20203;-72
2023/08/06 12:40:34;;;;;;;0.77;0.73;;;;;;;;;;5116323;28;20213;-71
2023/08/06 12:43:01;;;;;;;1.02;0.70;;;;;;;;;;5116387;28;20282;-71
2023/08/06 12:45:28;;;;;;;0.63;0.63;;;;;;;;;;5116761;28;20214;-71
2023/08/06 12:47:57;;;;;;;0.75;0.55;;;;;;;;;;5116037;28;20198;-71
2023/08/06 12:50:25;;;;;;;0.60;0.60;;;;;;;;;;5116834;28;20305;-71
2023/08/06 12:52:53;;;;;;;0.50;0.50;;;;;;;;;;5115938;28;20249;-71
2023/08/06 12:55:20;;;;;;;0.50;0.50;;;;;;;;;;5115505;28;20210;-71
2023/08/06 12:57:47;;;;;;;0.60;0.60;;;;;;;;;;5116322;28;20670;-71
2023/08/06 13:00:15;;;;;;;1.05;0.63;;;;;;;;;;5115239;28;20298;-71
2023/08/06 13:02:42;;;;;;;0.80;0.80;;;;;;;;;;5115851;28;20227;-71
2023/08/06 13:05:11;;;;;;;0.85;0.70;;;;;;;;;;5115562;28;20213;-71
2023/08/06 13:07:39;;;;;;;0.60;0.60;;;;;;;;;;5116177;28;20627;-71
2023/08/06 13:10:07;;;;;;;0.60;0.60;;;;;;;;;;5116016;28;20202;-71
2023/08/06 13:12:34;;;;;;;0.60;0.60;;;;;;;;;;5115701;28;20281;-71
2023/08/06 13:15:02;;;;;;;0.60;0.60;;;;;;;;;;5116456;28;20210;-71
2023/08/06 13:17:29;;;;;;;0.60;0.60;;;;;;;;;;5116193;28;20301;-71
2023/08/06 13:19:57;;;;;;;0.65;0.60;;;;;;;;;;5116543;28;20537;-71
2023/08/06 13:22:26;;;;;;;1.25;0.60;;;;;;;;;;5116061;28;20223;-71
2023/08/06 13:24:53;;;;;;;0.77;0.60;;;;;;;;;;5116494;28;20206;-71
2023/08/06 13:27:21;;;;;;;0.57;0.32;;;;;;;;;;5116055;28;20297;-71
2023/08/06 13:29:48;;;;;;;1.38;0.30;;;;;;;;;;5116128;28;20203;-71
2023/08/06 13:32:15;;;;;;;0.30;0.30;;;;;;;;;;5116394;28;20199;-71
2023/08/06 13:34:43;;;;;;;0.57;0.40;;;;;;;;;;5115188;28;20203;-71
2023/08/06 13:37:10;;;;;;;0.30;0.30;;;;;;;;;;5115288;28;20206;-72
2023/08/06 13:39:39;;;;;;;0.80;0.30;;;;;;;;;;5116658;28;20203;-72
2023/08/06 13:42:07;;;;;;;0.70;0.30;;;;;;;;;;5119863;28;20219;-71
2023/08/06 13:44:35;;;;;;;0.30;0.30;;;;;;;;;;5120115;28;20203;-71
2023/08/06 13:47:03;;;;;;;0.30;0.30;;;;;;;;;;5119679;28;20234;-72
2023/08/06 13:49:31;;;;;;;0.43;0.30;;;;;;;;;;5120131;28;20203;-71
2023/08/06 13:51:58;;;;;;;0.40;0.40;;;;;;;;;;5118914;28;20322;-71
2023/08/06 13:54:25;;;;;;;0.30;0.30;;;;;;;;;;5119541;28;20199;-71
2023/08/06 13:56:54;;;;;;;0.40;0.40;;;;;;;;;;5119694;28;20566;-70
2023/08/06 13:59:24;;;;;;;0.52;0.50;;;;;;;;;;5118866;28;20481;-71
2023/08/06 14:01:53;;;;;;;1.65;0.50;;;;;;;;;;5119232;28;20273;-71
2023/08/06 14:04:21;;;;;;;1.05;0.40;;;;;;;;;;5118942;28;20195;-71
2023/08/06 14:06:48;;;;;;;0.70;0.45;;;;;;;;;;5119001;28;20462;-71
2023/08/06 14:09:18;;;;;;;0.40;0.40;;;;;;;;;;5119141;28;20488;-71
2023/08/06 14:11:45;;;;;;;0.52;0.50;;;;;;;;;;5119462;28;20210;-71
2023/08/06 14:14:14;;;;;;;0.73;0.50;;;;;;;;;;5119722;28;20297;-71
2023/08/06 14:16:42;;;;;;;0.50;0.50;;;;;;;;;;5119343;28;20203;-71
2023/08/06 14:19:09;;;;;;;0.45;0.45;;;;;;;;;;5119090;28;20203;-71
2023/08/06 14:21:36;;;;;;;0.30;0.30;;;;;;;;;;5119324;28;20231;-71
2023/08/06 14:24:04;;;;;;;0.32;0.32;;;;;;;;;;5118331;28;20202;-71
2023/08/06 14:26:31;;;;;;;0.43;0.43;;;;;;;;;;5118709;28;20195;-71
2023/08/06 14:28:59;;;;;;;0.30;0.30;;;;;;;;;;5118413;28;20203;-71
2023/08/06 14:31:28;;;;;;;0.50;0.30;;;;;;;;;;5118546;28;20203;-71
2023/08/06 14:33:55;;;;;;;0.73;0.20;;;;;;;;;;5118562;28;20203;-71
2023/08/06 14:36:22;;;;;;;0.25;0.25;;;;;;;;;;5118680;28;20195;-71
2023/08/06 14:38:50;;;;;;;0.20;0.20;;;;;;;;;;5118819;28;20203;-71
2023/08/06 14:41:17;;;;;;;0.20;0.20;;;;;;;;;;5118813;28;20211;-71
2023/08/06 14:43:45;;;;;;;0.22;0.22;;;;;;;;;;5118599;28;20206;-71
2023/08/06 14:46:12;;;;;;;0.30;0.30;;;;;;;;;;5118002;28;20289;-71
2023/08/06 14:48:42;;;;;;;0.20;0.20;;;;;;;;;;5118693;28;20297;-71